createdAt,value
2019-05-19T00:00:02.247Z,14.26
2019-05-19T00:05:07.582Z,14.30
2019-05-19T00:10:09.934Z,14.25
2019-05-19T00:15:12.044Z,14.20
2019-05-19T00:20:14.327Z,14.30
2019-05-19T00:25:17.547Z,14.30
2019-05-19T00:30:20.577Z,14.17
2019-05-19T00:35:22.570Z,14.18
2019-05-19T00:40:24.492Z,14.12
2019-05-19T00:47:42.733Z,14.11
2019-05-19T00:52:44.905Z,14.05
2019-05-19T00:57:47.851Z,14.12
2019-05-19T01:02:49.885Z,14.19
2019-05-19T01:07:51.867Z,14.20
2019-05-19T01:12:53.871Z,14.21
2019-05-19T01:17:55.928Z,14.30
2019-05-19T01:22:57.973Z,14.27
2019-05-19T01:27:59.898Z,14.16
2019-05-19T01:33:03.348Z,14.13
2019-05-19T01:38:06.477Z,14.13
2019-05-19T01:43:08.404Z,14.13
2019-05-19T01:48:11.073Z,14.12
2019-05-19T01:53:13.206Z,14.12
2019-05-19T01:58:15.121Z,14.06
2019-05-19T02:03:17.183Z,13.98
2019-05-19T02:08:19.282Z,13.95
2019-05-19T02:13:21.388Z,13.94
2019-05-19T02:18:23.762Z,13.88
2019-05-19T02:23:25.876Z,13.89
2019-05-19T02:28:27.790Z,13.95
2019-05-19T02:33:29.797Z,13.98
2019-05-19T02:38:32.819Z,13.92
2019-05-19T02:43:36.333Z,13.84
2019-05-19T02:48:39.370Z,13.79
2019-05-19T02:53:43.054Z,13.61
2019-05-19T02:58:45.992Z,13.39
2019-05-19T03:03:48.010Z,13.31
2019-05-19T03:08:49.927Z,13.26
2019-05-19T03:13:51.970Z,13.23
2019-05-19T03:18:53.914Z,13.09
2019-05-19T03:23:55.843Z,13.25
2019-05-19T03:28:57.870Z,13.29
2019-05-19T03:33:59.842Z,13.28
2019-05-19T03:39:01.917Z,13.25
2019-05-19T03:44:05.250Z,13.29
2019-05-19T03:49:07.186Z,13.20
2019-05-19T03:54:09.233Z,13.05
2019-05-19T03:59:11.201Z,13.11
2019-05-19T04:04:13.137Z,13.11
2019-05-19T04:09:17.278Z,13.17
2019-05-19T04:14:18.966Z,13.14
2019-05-19T04:19:22.127Z,13.19
2019-05-19T04:24:24.078Z,13.25
2019-05-19T04:29:26.036Z,13.32
2019-05-19T04:34:28.000Z,13.36
2019-05-19T04:39:29.940Z,13.41
2019-05-19T04:44:32.156Z,13.54
2019-05-19T04:49:34.239Z,13.53
2019-05-19T04:54:36.290Z,13.68
2019-05-19T04:59:38.262Z,13.85
2019-05-19T05:04:42.276Z,13.86
2019-05-19T05:09:45.328Z,14.35
2019-05-19T05:14:47.242Z,15.14
2019-05-19T05:19:49.336Z,15.80
2019-05-19T05:24:51.466Z,16.26
2019-05-19T05:29:53.409Z,16.46
2019-05-19T05:34:55.363Z,16.40
2019-05-19T05:39:57.431Z,16.49
2019-05-19T05:44:59.534Z,16.46
2019-05-19T05:50:01.594Z,16.45
2019-05-19T05:55:03.815Z,16.40
2019-05-19T06:00:06.900Z,16.34
2019-05-19T06:05:09.327Z,16.29
2019-05-19T06:10:11.650Z,16.23
2019-05-19T06:15:13.691Z,16.23
2019-05-19T06:20:15.872Z,16.23
2019-05-19T06:25:18.134Z,16.31
2019-05-19T06:30:20.242Z,16.40
2019-05-19T06:35:22.459Z,16.43
2019-05-19T06:40:24.414Z,16.45
2019-05-19T06:45:26.386Z,16.58
2019-05-19T06:50:29.512Z,16.79
2019-05-19T06:55:31.637Z,16.85
2019-05-19T07:00:33.764Z,16.93
2019-05-19T07:05:35.828Z,17.04
2019-05-19T07:10:37.915Z,17.21
2019-05-19T07:15:41.228Z,17.35
2019-05-19T07:20:43.211Z,17.45
2019-05-19T07:25:45.265Z,17.52
2019-05-19T07:30:47.329Z,17.64
2019-05-19T07:35:49.665Z,17.80
2019-05-19T07:40:52.352Z,18.00
2019-05-19T07:45:54.351Z,18.19
2019-05-19T07:50:56.530Z,18.33
2019-05-19T07:55:58.592Z,18.39
2019-05-19T08:01:00.583Z,18.48
2019-05-19T08:06:03.115Z,18.50
2019-05-19T08:11:05.343Z,18.63
2019-05-19T08:16:07.697Z,18.78
2019-05-19T08:21:09.669Z,18.81
2019-05-19T08:26:11.765Z,18.91
2019-05-19T08:31:13.814Z,19.07
2019-05-19T08:36:15.751Z,19.11
2019-05-19T08:41:17.954Z,19.27
2019-05-19T08:46:19.921Z,19.42
2019-05-19T08:51:23.201Z,19.61
2019-05-19T08:56:25.270Z,19.75
2019-05-19T09:01:27.254Z,19.82
2019-05-19T09:06:29.322Z,19.90
2019-05-19T09:11:31.451Z,19.99
2019-05-19T09:16:33.431Z,20.06
2019-05-19T09:21:35.415Z,20.17
2019-05-19T09:26:37.496Z,20.23
2019-05-19T09:31:41.484Z,20.33
2019-05-19T09:36:43.656Z,20.51
2019-05-19T09:41:45.636Z,20.66
2019-05-19T09:46:47.782Z,20.82
2019-05-19T09:51:49.815Z,20.94
2019-05-19T09:56:51.865Z,20.95
2019-05-19T10:01:54.039Z,21.11
2019-05-19T10:06:56.188Z,21.27
2019-05-19T10:12:03.350Z,21.41
2019-05-19T10:17:05.602Z,21.48
2019-05-19T10:22:07.748Z,21.67
2019-05-19T10:27:09.791Z,21.79
2019-05-19T10:32:11.941Z,21.78
2019-05-19T10:37:13.975Z,21.97
2019-05-19T10:42:16.117Z,22.08
2019-05-19T10:47:18.000Z,22.15
2019-05-19T10:52:20.026Z,22.27
2019-05-19T10:57:22.075Z,22.48
2019-05-19T11:02:24.000Z,22.59
2019-05-19T11:07:25.980Z,22.78
2019-05-19T11:12:28.473Z,22.88
2019-05-19T11:17:30.671Z,23.04
2019-05-19T11:22:32.700Z,23.11
2019-05-19T11:27:34.736Z,22.94
2019-05-19T11:32:36.907Z,22.78
2019-05-19T11:37:38.823Z,22.76
2019-05-19T11:42:40.890Z,22.96
2019-05-19T11:47:42.824Z,23.05
2019-05-19T11:52:44.860Z,22.94
2019-05-19T11:57:47.099Z,23.10
2019-05-19T12:02:49.065Z,23.26
2019-05-19T12:07:51.177Z,23.36
2019-05-19T12:12:53.227Z,23.57
2019-05-19T12:17:55.277Z,23.75
2019-05-19T12:22:57.454Z,23.86
2019-05-19T12:27:59.533Z,23.93
2019-05-19T12:33:01.661Z,24.08
2019-05-19T12:38:03.686Z,24.08
2019-05-19T12:43:05.742Z,24.21
2019-05-19T12:48:07.833Z,24.39
2019-05-19T12:53:10.893Z,24.54
2019-05-19T12:58:12.974Z,24.65
2019-05-19T13:03:14.939Z,24.77
2019-05-19T13:08:18.155Z,24.86
2019-05-19T13:13:20.233Z,24.82
2019-05-19T13:18:22.280Z,24.94
2019-05-19T13:23:24.352Z,25.26
2019-05-19T13:28:26.300Z,25.13
2019-05-19T13:33:28.250Z,25.20
2019-05-19T13:38:30.223Z,25.36
2019-05-19T13:43:32.234Z,25.50
2019-05-19T13:48:34.179Z,25.51
2019-05-19T13:53:36.263Z,25.54
2019-05-19T13:58:38.370Z,25.62
2019-05-19T14:03:40.410Z,25.59
2019-05-19T14:08:42.367Z,25.71
2019-05-19T14:13:44.347Z,25.59
2019-05-19T14:18:46.379Z,25.60
2019-05-19T14:23:48.454Z,25.74
2019-05-19T14:28:50.516Z,25.82
2019-05-19T14:33:52.461Z,25.77
2019-05-19T14:39:05.039Z,25.82
2019-05-19T14:44:06.160Z,25.73
2019-05-19T14:49:08.138Z,25.61
2019-05-19T14:54:10.173Z,25.69
2019-05-19T14:59:12.219Z,25.74
2019-05-19T15:04:15.272Z,25.80
2019-05-19T15:09:17.323Z,25.84
2019-05-19T15:14:19.372Z,26.01
2019-05-19T15:19:21.319Z,25.86
2019-05-19T15:24:23.282Z,25.52
2019-05-19T15:29:25.364Z,25.33
2019-05-19T15:34:27.420Z,25.07
2019-05-19T15:39:29.482Z,24.80
2019-05-19T15:44:32.037Z,24.61
2019-05-19T15:49:34.007Z,24.50
2019-05-19T15:54:36.139Z,24.46
2019-05-19T15:59:38.460Z,24.55
2019-05-19T16:04:40.594Z,24.71
2019-05-19T16:09:42.627Z,24.77
2019-05-19T16:14:44.701Z,24.92
2019-05-19T16:19:46.729Z,24.86
2019-05-19T16:24:48.746Z,24.88
2019-05-19T16:29:50.804Z,24.91
2019-05-19T16:34:52.780Z,24.94
2019-05-19T16:39:54.738Z,24.92
2019-05-19T16:44:57.252Z,24.95
2019-05-19T16:49:59.828Z,24.93
2019-05-19T16:55:21.876Z,24.92
2019-05-19T17:00:24.889Z,24.80
2019-05-19T17:05:27.020Z,24.76
2019-05-19T17:10:28.980Z,24.76
2019-05-19T17:15:31.417Z,24.71
2019-05-19T17:20:33.570Z,24.68
2019-05-19T17:25:35.513Z,24.60
2019-05-19T17:30:37.536Z,24.49
2019-05-19T17:35:39.513Z,24.41
2019-05-19T17:40:41.733Z,24.33
2019-05-19T17:45:43.823Z,24.18
2019-05-19T17:50:45.987Z,24.10
2019-05-19T17:55:48.525Z,24.08
2019-05-19T18:00:50.589Z,24.00
2019-05-19T18:05:52.602Z,23.92
2019-05-19T18:10:54.590Z,23.78
2019-05-19T18:15:56.655Z,23.65
2019-05-19T18:20:58.608Z,23.55
2019-05-19T18:26:01.534Z,23.40
2019-05-19T18:31:04.644Z,23.29
2019-05-19T18:36:06.666Z,23.17
2019-05-19T18:41:08.611Z,23.10
2019-05-19T18:46:10.804Z,22.93
2019-05-19T18:51:12.728Z,22.80
2019-05-19T18:56:14.816Z,22.78
2019-05-19T19:01:16.937Z,22.75
2019-05-19T19:06:19.526Z,22.65
2019-05-19T19:11:21.490Z,22.53
2019-05-19T19:16:25.331Z,22.20
2019-05-19T19:21:28.648Z,22.05
2019-05-19T19:26:30.706Z,21.93
2019-05-19T19:31:47.360Z,21.84
2019-05-19T19:36:36.768Z,21.85
2019-05-19T19:41:38.819Z,21.73
2019-05-19T19:46:40.837Z,21.72
2019-05-19T19:51:42.836Z,21.67
2019-05-19T19:56:44.805Z,21.60
2019-05-19T20:01:46.925Z,21.56
2019-05-19T20:06:49.059Z,21.41
2019-05-19T20:11:52.358Z,21.29
2019-05-19T20:16:54.453Z,21.22
2019-05-19T20:21:57.289Z,21.12
2019-05-19T20:26:59.491Z,21.00
2019-05-19T20:32:03.064Z,20.83
2019-05-19T20:37:05.108Z,20.44
2019-05-19T20:42:07.201Z,20.17
2019-05-19T20:47:09.354Z,19.89
2019-05-19T20:52:12.551Z,19.84
2019-05-19T20:57:14.791Z,19.70
2019-05-19T21:02:16.855Z,19.57
2019-05-19T21:07:19.010Z,19.44
2019-05-19T21:12:21.007Z,19.33
2019-05-19T21:17:23.093Z,19.28
2019-05-19T21:22:26.200Z,19.30
2019-05-19T21:27:28.348Z,19.24
2019-05-19T21:32:31.630Z,19.15
2019-05-19T21:37:33.733Z,19.10
2019-05-19T21:42:36.023Z,19.06
2019-05-19T21:47:38.075Z,18.97
2019-05-19T21:52:40.079Z,18.78
2019-05-19T21:57:42.223Z,18.68
2019-05-19T22:02:44.422Z,18.57
2019-05-19T22:07:58.418Z,18.52
2019-05-19T22:13:01.723Z,18.45
2019-05-19T22:18:03.934Z,18.42
2019-05-19T22:23:05.997Z,18.30
2019-05-19T22:28:08.258Z,18.29
2019-05-19T22:33:10.236Z,18.40
2019-05-19T22:38:12.313Z,18.33
2019-05-19T22:43:14.423Z,18.37
2019-05-19T22:48:17.201Z,18.38
2019-05-19T22:53:19.320Z,18.42
2019-05-19T22:58:21.645Z,18.35
2019-05-19T23:03:24.779Z,18.30
2019-05-19T23:08:27.149Z,18.24
2019-05-19T23:13:30.044Z,18.05
2019-05-19T23:18:32.385Z,17.87
2019-05-19T23:23:34.568Z,17.77
2019-05-19T23:28:36.600Z,17.74
2019-05-19T23:33:38.605Z,17.65
2019-05-19T23:38:40.583Z,17.62
2019-05-19T23:43:42.699Z,17.33
2019-05-19T23:48:46.000Z,17.09
2019-05-19T23:53:48.191Z,16.89
2019-05-19T23:58:50.532Z,16.72
